sensor_id;sensor_type;location;lat;lon;timestamp;P1;durP1;ratioP1;P2;durP2;ratioP2
11125;SDS011;5617;54.046;10.676;2023-08-20T00:00:53;14.30;;;11.33;;
11125;SDS011;5617;54.046;10.676;2023-08-20T00:03:02;14.10;;;10.93;;
11125;SDS011;5617;54.046;10.676;2023-08-20T00:05:16;13.60;;;11.07;;
11125;SDS011;5617;54.046;10.676;2023-08-20T00:07:25;15.07;;;10.70;;
11125;SDS011;5617;54.046;10.676;2023-08-20T00:09:34;16.73;;;11.07;;
11125;SDS011;5617;54.046;10.676;2023-08-20T00:11:42;13.97;;;10.60;;
11125;SDS011;5617;54.046;10.676;2023-08-20T00:13:51;12.20;;;10.77;;
11125;SDS011;5617;54.046;10.676;2023-08-20T00:15:59;12.87;;;11.07;;
11125;SDS011;5617;54.046;10.676;2023-08-20T00:18:08;13.23;;;10.30;;
11125;SDS011;5617;54.046;10.676;2023-08-20T00:20:16;14.20;;;11.07;;
11125;SDS011;5617;54.046;10.676;2023-08-20T00:22:25;15.57;;;11.17;;
11125;SDS011;5617;54.046;10.676;2023-08-20T00:24:34;15.07;;;10.50;;
11125;SDS011;5617;54.046;10.676;2023-08-20T00:26:45;16.03;;;10.80;;
11125;SDS011;5617;54.046;10.676;2023-08-20T00:28:54;12.70;;;10.87;;
11125;SDS011;5617;54.046;10.676;2023-08-20T00:31:05;14.07;;;11.37;;
11125;SDS011;5617;54.046;10.676;2023-08-20T00:33:16;16.10;;;11.13;;
11125;SDS011;5617;54.046;10.676;2023-08-20T00:35:25;15.97;;;11.30;;
11125;SDS011;5617;54.046;10.676;2023-08-20T00:37:32;14.60;;;11.40;;
11125;SDS011;5617;54.046;10.676;2023-08-20T00:39:41;16.07;;;11.63;;
11125;SDS011;5617;54.046;10.676;2023-08-20T00:41:50;13.87;;;11.33;;
11125;SDS011;5617;54.046;10.676;2023-08-20T00:43:59;14.73;;;11.37;;
11125;SDS011;5617;54.046;10.676;2023-08-20T00:46:07;16.03;;;11.47;;
11125;SDS011;5617;54.046;10.676;2023-08-20T00:48:15;16.20;;;11.67;;
11125;SDS011;5617;54.046;10.676;2023-08-20T00:50:24;16.00;;;11.50;;
11125;SDS011;5617;54.046;10.676;2023-08-20T00:52:32;14.07;;;11.40;;
11125;SDS011;5617;54.046;10.676;2023-08-20T00:54:41;13.53;;;10.27;;
11125;SDS011;5617;54.046;10.676;2023-08-20T00:56:51;12.87;;;9.50;;
11125;SDS011;5617;54.046;10.676;2023-08-20T00:59:00;12.30;;;9.13;;
11125;SDS011;5617;54.046;10.676;2023-08-20T01:01:08;12.83;;;8.87;;
11125;SDS011;5617;54.046;10.676;2023-08-20T01:03:16;11.80;;;8.03;;
11125;SDS011;5617;54.046;10.676;2023-08-20T01:05:24;13.40;;;8.37;;
11125;SDS011;5617;54.046;10.676;2023-08-20T01:07:35;12.20;;;8.23;;
11125;SDS011;5617;54.046;10.676;2023-08-20T01:09:57;10.13;;;7.60;;
11125;SDS011;5617;54.046;10.676;2023-08-20T01:12:14;10.70;;;7.60;;
11125;SDS011;5617;54.046;10.676;2023-08-20T01:14:26;11.13;;;7.40;;
11125;SDS011;5617;54.046;10.676;2023-08-20T01:16:34;11.33;;;7.83;;
11125;SDS011;5617;54.046;10.676;2023-08-20T01:18:42;10.00;;;7.27;;
11125;SDS011;5617;54.046;10.676;2023-08-20T01:20:51;9.83;;;7.03;;
11125;SDS011;5617;54.046;10.676;2023-08-20T01:23:08;12.33;;;7.43;;
11125;SDS011;5617;54.046;10.676;2023-08-20T01:25:32;9.70;;;7.30;;
11125;SDS011;5617;54.046;10.676;2023-08-20T01:27:57;12.10;;;7.60;;
11125;SDS011;5617;54.046;10.676;2023-08-20T01:30:14;8.50;;;6.57;;
11125;SDS011;5617;54.046;10.676;2023-08-20T01:32:22;11.13;;;7.27;;
11125;SDS011;5617;54.046;10.676;2023-08-20T01:34:31;9.80;;;6.67;;
11125;SDS011;5617;54.046;10.676;2023-08-20T01:36:39;10.53;;;6.77;;
11125;SDS011;5617;54.046;10.676;2023-08-20T01:38:47;7.70;;;5.90;;
11125;SDS011;5617;54.046;10.676;2023-08-20T01:40:55;10.13;;;6.47;;
11125;SDS011;5617;54.046;10.676;2023-08-20T01:43:03;9.73;;;6.83;;
11125;SDS011;5617;54.046;10.676;2023-08-20T01:45:10;9.87;;;6.37;;
11125;SDS011;5617;54.046;10.676;2023-08-20T01:47:20;10.60;;;6.30;;
11125;SDS011;5617;54.046;10.676;2023-08-20T01:49:28;8.20;;;6.30;;
11125;SDS011;5617;54.046;10.676;2023-08-20T01:51:36;9.53;;;6.73;;
11125;SDS011;5617;54.046;10.676;2023-08-20T01:53:44;9.70;;;6.23;;
11125;SDS011;5617;54.046;10.676;2023-08-20T01:55:52;14.13;;;7.03;;
11125;SDS011;5617;54.046;10.676;2023-08-20T01:57:59;9.83;;;6.60;;
11125;SDS011;5617;54.046;10.676;2023-08-20T02:00:07;10.37;;;6.47;;
11125;SDS011;5617;54.046;10.676;2023-08-20T02:02:16;12.63;;;6.37;;
11125;SDS011;5617;54.046;10.676;2023-08-20T02:04:28;8.50;;;5.83;;
11125;SDS011;5617;54.046;10.676;2023-08-20T02:06:36;10.13;;;6.37;;
11125;SDS011;5617;54.046;10.676;2023-08-20T02:08:44;9.77;;;6.40;;
11125;SDS011;5617;54.046;10.676;2023-08-20T02:10:59;11.80;;;5.93;;
11125;SDS011;5617;54.046;10.676;2023-08-20T02:13:07;8.17;;;5.67;;
11125;SDS011;5617;54.046;10.676;2023-08-20T02:15:15;10.07;;;6.00;;
11125;SDS011;5617;54.046;10.676;2023-08-20T02:17:24;11.27;;;6.23;;
11125;SDS011;5617;54.046;10.676;2023-08-20T02:19:32;11.23;;;6.30;;
11125;SDS011;5617;54.046;10.676;2023-08-20T02:21:40;9.37;;;5.97;;
11125;SDS011;5617;54.046;10.676;2023-08-20T02:23:48;9.00;;;6.47;;
11125;SDS011;5617;54.046;10.676;2023-08-20T02:25:56;10.20;;;5.87;;
11125;SDS011;5617;54.046;10.676;2023-08-20T02:28:04;9.67;;;5.70;;
11125;SDS011;5617;54.046;10.676;2023-08-20T02:30:12;8.83;;;6.10;;
11125;SDS011;5617;54.046;10.676;2023-08-20T02:32:20;9.67;;;6.20;;
11125;SDS011;5617;54.046;10.676;2023-08-20T02:34:29;10.50;;;6.27;;
11125;SDS011;5617;54.046;10.676;2023-08-20T02:36:37;9.53;;;5.87;;
11125;SDS011;5617;54.046;10.676;2023-08-20T02:38:45;11.53;;;5.97;;
11125;SDS011;5617;54.046;10.676;2023-08-20T02:40:53;12.60;;;6.33;;
11125;SDS011;5617;54.046;10.676;2023-08-20T02:43:01;11.63;;;6.20;;
11125;SDS011;5617;54.046;10.676;2023-08-20T02:45:08;9.70;;;6.50;;
11125;SDS011;5617;54.046;10.676;2023-08-20T02:47:16;9.73;;;6.20;;
11125;SDS011;5617;54.046;10.676;2023-08-20T02:49:26;8.63;;;6.03;;
11125;SDS011;5617;54.046;10.676;2023-08-20T02:51:39;9.33;;;6.17;;
11125;SDS011;5617;54.046;10.676;2023-08-20T02:53:48;10.10;;;6.33;;
11125;SDS011;5617;54.046;10.676;2023-08-20T02:55:56;10.30;;;6.70;;
11125;SDS011;5617;54.046;10.676;2023-08-20T02:58:03;7.83;;;6.10;;
11125;SDS011;5617;54.046;10.676;2023-08-20T03:00:13;12.93;;;6.77;;
11125;SDS011;5617;54.046;10.676;2023-08-20T03:02:21;8.97;;;6.23;;
11125;SDS011;5617;54.046;10.676;2023-08-20T03:04:29;14.73;;;7.30;;
11125;SDS011;5617;54.046;10.676;2023-08-20T03:06:38;9.60;;;7.03;;
11125;SDS011;5617;54.046;10.676;2023-08-20T03:08:47;13.77;;;7.63;;
11125;SDS011;5617;54.046;10.676;2023-08-20T03:10:55;14.57;;;7.73;;
11125;SDS011;5617;54.046;10.676;2023-08-20T03:13:03;12.40;;;7.77;;
11125;SDS011;5617;54.046;10.676;2023-08-20T03:15:10;14.10;;;8.57;;
11125;SDS011;5617;54.046;10.676;2023-08-20T03:17:17;13.13;;;8.23;;
11125;SDS011;5617;54.046;10.676;2023-08-20T03:19:25;15.13;;;8.97;;
11125;SDS011;5617;54.046;10.676;2023-08-20T03:21:34;14.20;;;9.83;;
11125;SDS011;5617;54.046;10.676;2023-08-20T03:23:42;15.50;;;9.67;;
11125;SDS011;5617;54.046;10.676;2023-08-20T03:25:50;15.50;;;11.23;;
11125;SDS011;5617;54.046;10.676;2023-08-20T03:27:58;16.13;;;11.17;;
11125;SDS011;5617;54.046;10.676;2023-08-20T03:30:06;18.53;;;11.83;;
11125;SDS011;5617;54.046;10.676;2023-08-20T03:32:15;19.57;;;11.53;;
11125;SDS011;5617;54.046;10.676;2023-08-20T03:34:21;18.97;;;12.07;;
11125;SDS011;5617;54.046;10.676;2023-08-20T03:36:29;19.20;;;13.07;;
11125;SDS011;5617;54.046;10.676;2023-08-20T03:38:39;19.60;;;12.37;;
11125;SDS011;5617;54.046;10.676;2023-08-20T03:40:46;19.47;;;13.17;;
11125;SDS011;5617;54.046;10.676;2023-08-20T03:42:54;20.93;;;12.57;;
11125;SDS011;5617;54.046;10.676;2023-08-20T03:45:02;22.33;;;14.33;;
11125;SDS011;5617;54.046;10.676;2023-08-20T03:47:11;22.70;;;14.10;;
11125;SDS011;5617;54.046;10.676;2023-08-20T03:49:18;20.90;;;13.37;;
11125;SDS011;5617;54.046;10.676;2023-08-20T03:51:26;18.83;;;12.50;;
11125;SDS011;5617;54.046;10.676;2023-08-20T03:53:34;19.20;;;12.87;;
11125;SDS011;5617;54.046;10.676;2023-08-20T03:55:46;20.83;;;12.10;;
11125;SDS011;5617;54.046;10.676;2023-08-20T03:57:55;20.57;;;11.57;;
11125;SDS011;5617;54.046;10.676;2023-08-20T04:00:03;18.80;;;11.90;;
11125;SDS011;5617;54.046;10.676;2023-08-20T04:02:14;20.77;;;12.13;;
11125;SDS011;5617;54.046;10.676;2023-08-20T04:04:22;15.53;;;11.10;;
11125;SDS011;5617;54.046;10.676;2023-08-20T04:06:30;17.80;;;12.20;;
11125;SDS011;5617;54.046;10.676;2023-08-20T04:08:37;17.40;;;11.63;;
11125;SDS011;5617;54.046;10.676;2023-08-20T04:10:46;20.47;;;12.27;;
11125;SDS011;5617;54.046;10.676;2023-08-20T04:12:54;20.00;;;12.37;;
11125;SDS011;5617;54.046;10.676;2023-08-20T04:15:05;21.10;;;12.67;;
11125;SDS011;5617;54.046;10.676;2023-08-20T04:17:13;21.47;;;12.90;;
11125;SDS011;5617;54.046;10.676;2023-08-20T04:19:21;24.07;;;13.30;;
11125;SDS011;5617;54.046;10.676;2023-08-20T04:21:29;24.07;;;13.33;;
11125;SDS011;5617;54.046;10.676;2023-08-20T04:23:37;18.53;;;13.80;;
11125;SDS011;5617;54.046;10.676;2023-08-20T04:25:44;22.30;;;14.43;;
11125;SDS011;5617;54.046;10.676;2023-08-20T04:27:54;24.53;;;14.17;;
11125;SDS011;5617;54.046;10.676;2023-08-20T04:30:02;22.67;;;14.00;;
11125;SDS011;5617;54.046;10.676;2023-08-20T04:32:10;22.67;;;13.20;;
11125;SDS011;5617;54.046;10.676;2023-08-20T04:34:18;24.17;;;14.90;;
11125;SDS011;5617;54.046;10.676;2023-08-20T04:36:26;24.03;;;14.90;;
11125;SDS011;5617;54.046;10.676;2023-08-20T04:38:34;25.27;;;15.07;;
11125;SDS011;5617;54.046;10.676;2023-08-20T04:40:42;22.10;;;13.47;;
11125;SDS011;5617;54.046;10.676;2023-08-20T04:42:54;20.83;;;14.27;;
11125;SDS011;5617;54.046;10.676;2023-08-20T04:45:02;19.97;;;14.13;;
11125;SDS011;5617;54.046;10.676;2023-08-20T04:47:10;22.63;;;13.93;;
11125;SDS011;5617;54.046;10.676;2023-08-20T04:49:18;21.27;;;13.80;;
11125;SDS011;5617;54.046;10.676;2023-08-20T04:51:26;21.17;;;14.07;;
11125;SDS011;5617;54.046;10.676;2023-08-20T04:53:34;19.77;;;13.27;;
11125;SDS011;5617;54.046;10.676;2023-08-20T04:55:42;20.30;;;13.10;;
11125;SDS011;5617;54.046;10.676;2023-08-20T04:57:50;19.10;;;12.40;;
11125;SDS011;5617;54.046;10.676;2023-08-20T04:59:59;15.87;;;12.40;;
11125;SDS011;5617;54.046;10.676;2023-08-20T05:02:07;17.43;;;12.20;;
11125;SDS011;5617;54.046;10.676;2023-08-20T05:04:15;15.40;;;11.83;;
11125;SDS011;5617;54.046;10.676;2023-08-20T05:06:23;16.30;;;11.60;;
11125;SDS011;5617;54.046;10.676;2023-08-20T05:08:31;15.17;;;11.47;;
11125;SDS011;5617;54.046;10.676;2023-08-20T05:10:39;15.20;;;11.80;;
11125;SDS011;5617;54.046;10.676;2023-08-20T05:12:47;14.83;;;10.90;;
11125;SDS011;5617;54.046;10.676;2023-08-20T05:14:55;16.10;;;11.60;;
11125;SDS011;5617;54.046;10.676;2023-08-20T05:17:04;13.27;;;11.13;;
11125;SDS011;5617;54.046;10.676;2023-08-20T05:19:11;15.27;;;10.70;;
11125;SDS011;5617;54.046;10.676;2023-08-20T05:21:19;13.10;;;10.57;;
11125;SDS011;5617;54.046;10.676;2023-08-20T05:23:31;14.17;;;10.00;;
11125;SDS011;5617;54.046;10.676;2023-08-20T05:25:39;15.70;;;11.27;;
11125;SDS011;5617;54.046;10.676;2023-08-20T05:27:46;12.53;;;10.20;;
11125;SDS011;5617;54.046;10.676;2023-08-20T05:29:54;15.13;;;10.40;;
11125;SDS011;5617;54.046;10.676;2023-08-20T05:32:01;13.40;;;10.97;;
11125;SDS011;5617;54.046;10.676;2023-08-20T05:34:12;14.43;;;11.47;;
11125;SDS011;5617;54.046;10.676;2023-08-20T05:36:20;14.40;;;10.73;;
11125;SDS011;5617;54.046;10.676;2023-08-20T05:38:28;14.30;;;11.07;;
11125;SDS011;5617;54.046;10.676;2023-08-20T05:40:36;16.57;;;11.20;;
11125;SDS011;5617;54.046;10.676;2023-08-20T05:42:45;19.27;;;11.70;;
11125;SDS011;5617;54.046;10.676;2023-08-20T05:44:57;16.93;;;11.47;;
11125;SDS011;5617;54.046;10.676;2023-08-20T05:47:05;15.83;;;10.80;;
11125;SDS011;5617;54.046;10.676;2023-08-20T05:49:15;15.00;;;11.40;;
11125;SDS011;5617;54.046;10.676;2023-08-20T05:51:23;15.50;;;11.17;;
11125;SDS011;5617;54.046;10.676;2023-08-20T05:53:32;15.10;;;10.70;;
11125;SDS011;5617;54.046;10.676;2023-08-20T05:55:40;14.03;;;10.53;;
11125;SDS011;5617;54.046;10.676;2023-08-20T05:57:48;13.87;;;9.40;;
11125;SDS011;5617;54.046;10.676;2023-08-20T05:59:56;11.57;;;8.67;;
11125;SDS011;5617;54.046;10.676;2023-08-20T06:02:04;10.13;;;8.13;;
11125;SDS011;5617;54.046;10.676;2023-08-20T06:04:15;10.67;;;8.13;;
11125;SDS011;5617;54.046;10.676;2023-08-20T06:06:24;10.80;;;7.90;;
11125;SDS011;5617;54.046;10.676;2023-08-20T06:08:34;12.63;;;8.57;;
11125;SDS011;5617;54.046;10.676;2023-08-20T06:10:42;14.20;;;8.80;;
11125;SDS011;5617;54.046;10.676;2023-08-20T06:12:50;12.57;;;7.93;;
11125;SDS011;5617;54.046;10.676;2023-08-20T06:14:58;11.23;;;8.07;;
11125;SDS011;5617;54.046;10.676;2023-08-20T06:17:06;9.90;;;7.60;;
11125;SDS011;5617;54.046;10.676;2023-08-20T06:19:17;11.00;;;7.67;;
11125;SDS011;5617;54.046;10.676;2023-08-20T06:21:26;12.30;;;7.53;;
11125;SDS011;5617;54.046;10.676;2023-08-20T06:23:34;10.50;;;7.87;;
11125;SDS011;5617;54.046;10.676;2023-08-20T06:25:50;11.13;;;7.10;;
11125;SDS011;5617;54.046;10.676;2023-08-20T06:27:58;10.20;;;6.73;;
11125;SDS011;5617;54.046;10.676;2023-08-20T06:30:06;10.63;;;6.67;;
11125;SDS011;5617;54.046;10.676;2023-08-20T06:32:15;9.13;;;6.57;;
11125;SDS011;5617;54.046;10.676;2023-08-20T06:34:24;8.63;;;6.07;;
11125;SDS011;5617;54.046;10.676;2023-08-20T06:36:32;9.13;;;6.07;;
11125;SDS011;5617;54.046;10.676;2023-08-20T06:38:39;11.20;;;6.07;;
11125;SDS011;5617;54.046;10.676;2023-08-20T06:40:46;8.77;;;6.50;;
11125;SDS011;5617;54.046;10.676;2023-08-20T06:42:55;7.70;;;6.00;;
11125;SDS011;5617;54.046;10.676;2023-08-20T06:45:03;10.40;;;5.77;;
11125;SDS011;5617;54.046;10.676;2023-08-20T06:47:11;11.03;;;6.67;;
11125;SDS011;5617;54.046;10.676;2023-08-20T06:49:21;11.27;;;7.40;;
11125;SDS011;5617;54.046;10.676;2023-08-20T06:51:30;12.10;;;8.87;;
11125;SDS011;5617;54.046;10.676;2023-08-20T06:53:38;9.30;;;8.30;;
11125;SDS011;5617;54.046;10.676;2023-08-20T06:55:47;11.47;;;8.50;;
11125;SDS011;5617;54.046;10.676;2023-08-20T06:57:57;12.90;;;8.53;;
11125;SDS011;5617;54.046;10.676;2023-08-20T07:00:06;12.27;;;9.07;;
11125;SDS011;5617;54.046;10.676;2023-08-20T07:02:15;12.30;;;9.40;;
11125;SDS011;5617;54.046;10.676;2023-08-20T07:04:24;11.07;;;9.13;;
11125;SDS011;5617;54.046;10.676;2023-08-20T07:06:34;10.37;;;9.20;;
11125;SDS011;5617;54.046;10.676;2023-08-20T07:08:42;9.00;;;8.07;;
11125;SDS011;5617;54.046;10.676;2023-08-20T07:10:50;9.90;;;8.13;;
11125;SDS011;5617;54.046;10.676;2023-08-20T07:12:57;10.93;;;8.00;;
11125;SDS011;5617;54.046;10.676;2023-08-20T07:15:06;8.63;;;7.47;;
11125;SDS011;5617;54.046;10.676;2023-08-20T07:17:15;9.07;;;7.37;;
11125;SDS011;5617;54.046;10.676;2023-08-20T07:19:23;11.70;;;7.43;;
11125;SDS011;5617;54.046;10.676;2023-08-20T07:21:30;9.07;;;7.07;;
11125;SDS011;5617;54.046;10.676;2023-08-20T07:23:40;8.57;;;6.57;;
11125;SDS011;5617;54.046;10.676;2023-08-20T07:25:47;8.60;;;7.10;;
11125;SDS011;5617;54.046;10.676;2023-08-20T07:27:58;10.70;;;7.20;;
11125;SDS011;5617;54.046;10.676;2023-08-20T07:30:06;11.37;;;7.63;;
11125;SDS011;5617;54.046;10.676;2023-08-20T07:32:15;10.57;;;6.90;;
11125;SDS011;5617;54.046;10.676;2023-08-20T07:34:22;8.57;;;6.30;;
11125;SDS011;5617;54.046;10.676;2023-08-20T07:36:30;10.33;;;7.07;;
11125;SDS011;5617;54.046;10.676;2023-08-20T07:38:43;10.77;;;6.50;;
11125;SDS011;5617;54.046;10.676;2023-08-20T07:40:51;8.40;;;7.00;;
11125;SDS011;5617;54.046;10.676;2023-08-20T07:43:00;10.10;;;7.20;;
11125;SDS011;5617;54.046;10.676;2023-08-20T07:45:09;10.57;;;6.93;;
11125;SDS011;5617;54.046;10.676;2023-08-20T07:47:17;8.90;;;7.27;;
11125;SDS011;5617;54.046;10.676;2023-08-20T07:49:27;8.77;;;7.00;;
11125;SDS011;5617;54.046;10.676;2023-08-20T07:51:35;7.00;;;5.97;;
11125;SDS011;5617;54.046;10.676;2023-08-20T07:53:44;9.03;;;6.93;;
11125;SDS011;5617;54.046;10.676;2023-08-20T07:55:52;9.97;;;7.50;;
11125;SDS011;5617;54.046;10.676;2023-08-20T07:58:00;8.57;;;7.57;;
11125;SDS011;5617;54.046;10.676;2023-08-20T08:00:08;11.03;;;8.50;;
11125;SDS011;5617;54.046;10.676;2023-08-20T08:02:18;10.47;;;7.50;;
11125;SDS011;5617;54.046;10.676;2023-08-20T08:04:26;8.67;;;7.70;;
11125;SDS011;5617;54.046;10.676;2023-08-20T08:06:34;9.23;;;6.77;;
11125;SDS011;5617;54.046;10.676;2023-08-20T08:08:46;7.20;;;6.50;;
11125;SDS011;5617;54.046;10.676;2023-08-20T08:10:53;7.30;;;6.13;;
11125;SDS011;5617;54.046;10.676;2023-08-20T08:13:02;8.17;;;7.00;;
11125;SDS011;5617;54.046;10.676;2023-08-20T08:15:10;7.97;;;7.17;;
11125;SDS011;5617;54.046;10.676;2023-08-20T08:17:18;7.57;;;6.70;;
11125;SDS011;5617;54.046;10.676;2023-08-20T08:19:26;8.40;;;7.10;;
11125;SDS011;5617;54.046;10.676;2023-08-20T08:21:34;7.43;;;6.20;;
11125;SDS011;5617;54.046;10.676;2023-08-20T08:23:42;7.23;;;6.53;;
11125;SDS011;5617;54.046;10.676;2023-08-20T08:25:51;7.57;;;6.17;;
11125;SDS011;5617;54.046;10.676;2023-08-20T08:27:59;7.23;;;5.57;;
11125;SDS011;5617;54.046;10.676;2023-08-20T08:30:08;6.30;;;4.73;;
11125;SDS011;5617;54.046;10.676;2023-08-20T08:32:16;7.33;;;4.60;;
11125;SDS011;5617;54.046;10.676;2023-08-20T08:34:24;7.20;;;4.40;;
11125;SDS011;5617;54.046;10.676;2023-08-20T08:36:35;7.10;;;4.40;;
11125;SDS011;5617;54.046;10.676;2023-08-20T08:38:44;8.30;;;4.40;;
11125;SDS011;5617;54.046;10.676;2023-08-20T08:40:53;8.17;;;4.20;;
11125;SDS011;5617;54.046;10.676;2023-08-20T08:43:03;5.70;;;3.40;;
11125;SDS011;5617;54.046;10.676;2023-08-20T08:45:11;6.17;;;3.57;;
11125;SDS011;5617;54.046;10.676;2023-08-20T08:47:21;8.47;;;3.47;;
11125;SDS011;5617;54.046;10.676;2023-08-20T08:49:30;5.23;;;3.33;;
11125;SDS011;5617;54.046;10.676;2023-08-20T08:51:40;5.73;;;3.10;;
11125;SDS011;5617;54.046;10.676;2023-08-20T08:53:51;5.23;;;3.17;;
11125;SDS011;5617;54.046;10.676;2023-08-20T08:56:01;5.70;;;3.47;;
11125;SDS011;5617;54.046;10.676;2023-08-20T08:58:11;5.80;;;3.30;;
11125;SDS011;5617;54.046;10.676;2023-08-20T09:00:23;7.23;;;3.27;;
11125;SDS011;5617;54.046;10.676;2023-08-20T09:02:29;3.57;;;2.40;;
11125;SDS011;5617;54.046;10.676;2023-08-20T09:04:38;4.03;;;2.40;;
11125;SDS011;5617;54.046;10.676;2023-08-20T09:06:49;4.93;;;2.27;;
11125;SDS011;5617;54.046;10.676;2023-08-20T09:09:03;4.20;;;2.00;;
11125;SDS011;5617;54.046;10.676;2023-08-20T09:11:16;5.87;;;2.40;;
11125;SDS011;5617;54.046;10.676;2023-08-20T09:13:24;5.50;;;2.20;;
11125;SDS011;5617;54.046;10.676;2023-08-20T09:15:33;3.77;;;1.97;;
11125;SDS011;5617;54.046;10.676;2023-08-20T09:17:41;3.77;;;1.83;;
11125;SDS011;5617;54.046;10.676;2023-08-20T09:19:53;3.17;;;1.80;;
11125;SDS011;5617;54.046;10.676;2023-08-20T09:22:02;5.50;;;1.63;;
11125;SDS011;5617;54.046;10.676;2023-08-20T09:24:10;4.63;;;1.90;;
11125;SDS011;5617;54.046;10.676;2023-08-20T09:26:19;3.77;;;1.90;;
11125;SDS011;5617;54.046;10.676;2023-08-20T09:28:27;4.67;;;1.80;;
11125;SDS011;5617;54.046;10.676;2023-08-20T09:30:35;4.47;;;1.77;;
11125;SDS011;5617;54.046;10.676;2023-08-20T09:32:45;3.47;;;2.00;;
11125;SDS011;5617;54.046;10.676;2023-08-20T09:35:17;4.47;;;1.80;;
11125;SDS011;5617;54.046;10.676;2023-08-20T09:37:26;4.30;;;1.73;;
11125;SDS011;5617;54.046;10.676;2023-08-20T09:39:34;2.87;;;1.70;;
11125;SDS011;5617;54.046;10.676;2023-08-20T09:41:43;3.47;;;1.60;;
11125;SDS011;5617;54.046;10.676;2023-08-20T09:43:55;4.83;;;1.70;;
11125;SDS011;5617;54.046;10.676;2023-08-20T09:46:04;4.07;;;1.73;;
11125;SDS011;5617;54.046;10.676;2023-08-20T09:48:18;2.30;;;1.20;;
11125;SDS011;5617;54.046;10.676;2023-08-20T09:50:27;2.67;;;1.50;;
11125;SDS011;5617;54.046;10.676;2023-08-20T09:52:39;3.73;;;1.37;;
11125;SDS011;5617;54.046;10.676;2023-08-20T09:54:59;5.53;;;1.50;;
11125;SDS011;5617;54.046;10.676;2023-08-20T09:57:10;4.23;;;1.40;;
11125;SDS011;5617;54.046;10.676;2023-08-20T09:59:36;3.77;;;1.13;;
11125;SDS011;5617;54.046;10.676;2023-08-20T10:01:45;3.97;;;1.30;;
11125;SDS011;5617;54.046;10.676;2023-08-20T10:03:57;3.27;;;1.03;;
11125;SDS011;5617;54.046;10.676;2023-08-20T10:06:06;4.93;;;1.33;;
11125;SDS011;5617;54.046;10.676;2023-08-20T10:08:14;3.63;;;1.27;;
11125;SDS011;5617;54.046;10.676;2023-08-20T10:10:22;2.90;;;1.23;;
11125;SDS011;5617;54.046;10.676;2023-08-20T10:12:33;2.63;;;0.90;;
11125;SDS011;5617;54.046;10.676;2023-08-20T10:14:42;2.90;;;1.13;;
11125;SDS011;5617;54.046;10.676;2023-08-20T10:16:49;3.10;;;1.40;;
11125;SDS011;5617;54.046;10.676;2023-08-20T10:19:01;3.07;;;0.93;;
11125;SDS011;5617;54.046;10.676;2023-08-20T10:21:09;2.63;;;1.00;;
11125;SDS011;5617;54.046;10.676;2023-08-20T10:23:19;1.77;;;1.10;;
11125;SDS011;5617;54.046;10.676;2023-08-20T10:25:29;2.90;;;1.10;;
11125;SDS011;5617;54.046;10.676;2023-08-20T10:27:39;2.03;;;0.90;;
11125;SDS011;5617;54.046;10.676;2023-08-20T10:29:48;3.07;;;1.43;;
11125;SDS011;5617;54.046;10.676;2023-08-20T10:31:56;2.00;;;1.03;;
11125;SDS011;5617;54.046;10.676;2023-08-20T10:34:04;2.73;;;1.10;;
11125;SDS011;5617;54.046;10.676;2023-08-20T10:36:14;2.10;;;1.07;;
11125;SDS011;5617;54.046;10.676;2023-08-20T10:38:23;3.87;;;1.20;;
11125;SDS011;5617;54.046;10.676;2023-08-20T10:43:03;1.87;;;1.00;;
11125;SDS011;5617;54.046;10.676;2023-08-20T10:45:13;2.13;;;1.00;;
11125;SDS011;5617;54.046;10.676;2023-08-20T10:47:21;2.73;;;1.10;;
11125;SDS011;5617;54.046;10.676;2023-08-20T10:49:31;2.70;;;1.23;;
11125;SDS011;5617;54.046;10.676;2023-08-20T10:51:38;2.33;;;1.13;;
11125;SDS011;5617;54.046;10.676;2023-08-20T10:54:02;2.63;;;1.00;;
11125;SDS011;5617;54.046;10.676;2023-08-20T10:56:13;2.87;;;1.17;;
11125;SDS011;5617;54.046;10.676;2023-08-20T10:58:24;2.57;;;1.03;;
11125;SDS011;5617;54.046;10.676;2023-08-20T11:00:32;2.13;;;0.80;;
11125;SDS011;5617;54.046;10.676;2023-08-20T11:02:40;2.37;;;1.00;;
11125;SDS011;5617;54.046;10.676;2023-08-20T11:04:49;1.97;;;1.00;;
11125;SDS011;5617;54.046;10.676;2023-08-20T11:06:58;1.63;;;1.00;;
11125;SDS011;5617;54.046;10.676;2023-08-20T11:09:06;1.50;;;0.80;;
11125;SDS011;5617;54.046;10.676;2023-08-20T11:11:14;2.43;;;0.90;;
11125;SDS011;5617;54.046;10.676;2023-08-20T11:13:28;1.87;;;0.80;;
11125;SDS011;5617;54.046;10.676;2023-08-20T11:15:40;2.93;;;1.00;;
11125;SDS011;5617;54.046;10.676;2023-08-20T11:17:49;6.60;;;1.23;;
11125;SDS011;5617;54.046;10.676;2023-08-20T11:19:57;1.83;;;0.90;;
11125;SDS011;5617;54.046;10.676;2023-08-20T11:22:15;2.63;;;1.10;;
11125;SDS011;5617;54.046;10.676;2023-08-20T11:24:28;2.43;;;1.00;;
11125;SDS011;5617;54.046;10.676;2023-08-20T11:26:38;2.00;;;0.80;;
11125;SDS011;5617;54.046;10.676;2023-08-20T11:28:48;2.23;;;1.03;;
11125;SDS011;5617;54.046;10.676;2023-08-20T11:30:56;2.70;;;1.20;;
11125;SDS011;5617;54.046;10.676;2023-08-20T11:33:04;2.40;;;1.10;;
11125;SDS011;5617;54.046;10.676;2023-08-20T11:35:12;1.67;;;1.13;;
11125;SDS011;5617;54.046;10.676;2023-08-20T11:37:20;2.50;;;1.20;;
11125;SDS011;5617;54.046;10.676;2023-08-20T11:39:29;2.30;;;1.07;;
11125;SDS011;5617;54.046;10.676;2023-08-20T11:41:37;3.30;;;1.40;;
11125;SDS011;5617;54.046;10.676;2023-08-20T11:43:46;1.87;;;1.03;;
11125;SDS011;5617;54.046;10.676;2023-08-20T11:45:55;2.67;;;1.13;;
11125;SDS011;5617;54.046;10.676;2023-08-20T11:48:03;2.10;;;1.10;;
11125;SDS011;5617;54.046;10.676;2023-08-20T11:50:11;2.33;;;1.10;;
11125;SDS011;5617;54.046;10.676;2023-08-20T11:52:19;1.77;;;1.20;;
11125;SDS011;5617;54.046;10.676;2023-08-20T11:54:27;3.67;;;1.43;;
11125;SDS011;5617;54.046;10.676;2023-08-20T11:56:42;3.27;;;1.17;;
11125;SDS011;5617;54.046;10.676;2023-08-20T11:58:50;2.03;;;1.03;;
11125;SDS011;5617;54.046;10.676;2023-08-20T12:00:59;3.80;;;1.30;;
11125;SDS011;5617;54.046;10.676;2023-08-20T12:03:07;2.63;;;1.03;;
11125;SDS011;5617;54.046;10.676;2023-08-20T12:05:18;2.77;;;1.20;;
11125;SDS011;5617;54.046;10.676;2023-08-20T12:07:25;2.50;;;1.13;;
11125;SDS011;5617;54.046;10.676;2023-08-20T12:09:34;1.87;;;1.10;;
11125;SDS011;5617;54.046;10.676;2023-08-20T12:11:47;2.97;;;1.00;;
11125;SDS011;5617;54.046;10.676;2023-08-20T12:13:54;2.33;;;1.17;;
11125;SDS011;5617;54.046;10.676;2023-08-20T12:16:04;2.47;;;1.03;;
11125;SDS011;5617;54.046;10.676;2023-08-20T12:18:13;1.73;;;1.00;;
11125;SDS011;5617;54.046;10.676;2023-08-20T12:20:20;2.03;;;1.00;;
11125;SDS011;5617;54.046;10.676;2023-08-20T12:22:29;2.17;;;1.00;;
11125;SDS011;5617;54.046;10.676;2023-08-20T12:24:37;5.00;;;1.40;;
11125;SDS011;5617;54.046;10.676;2023-08-20T12:26:49;2.37;;;1.20;;
11125;SDS011;5617;54.046;10.676;2023-08-20T12:29:01;1.60;;;0.83;;
11125;SDS011;5617;54.046;10.676;2023-08-20T12:31:10;1.97;;;1.10;;
11125;SDS011;5617;54.046;10.676;2023-08-20T12:33:18;2.37;;;1.40;;
11125;SDS011;5617;54.046;10.676;2023-08-20T12:35:27;2.30;;;1.10;;
11125;SDS011;5617;54.046;10.676;2023-08-20T12:37:34;1.77;;;0.80;;
11125;SDS011;5617;54.046;10.676;2023-08-20T12:39:43;1.30;;;0.70;;
11125;SDS011;5617;54.046;10.676;2023-08-20T12:41:50;3.17;;;1.00;;
11125;SDS011;5617;54.046;10.676;2023-08-20T12:43:58;2.20;;;0.97;;
11125;SDS011;5617;54.046;10.676;2023-08-20T12:46:06;2.63;;;1.00;;
11125;SDS011;5617;54.046;10.676;2023-08-20T12:48:15;3.27;;;1.00;;
11125;SDS011;5617;54.046;10.676;2023-08-20T12:50:22;4.30;;;0.93;;
11125;SDS011;5617;54.046;10.676;2023-08-20T12:52:31;2.00;;;0.87;;